Time;durP1;ratioP1;P1;durP2;ratioP2;P2;SDS_P1;SDS_P2;PMS_P1;PMS_P2;Temp;Humidity;BMP_temperature;BMP_pressure;BME280_temperature;BME280_humidity;BME280_pressure;Samples;Min_cycle;Max_cycle;Signal;HPM_P1;HPM_P2
2023/11/28 00:09:50;;;;;;;676.10;25.50;;;0.50;99.90;;;;;;25471314;23;20005;-59
2023/11/28 00:19:51;;;;;;;50.28;3.10;;;0.50;99.90;;;;;;25470692;23;20377;-59
2023/11/28 00:29:53;;;;;;;388.17;14.60;;;0.50;99.90;;;;;;25469618;23;20014;-59
2023/11/28 00:39:55;;;;;;;286.20;11.70;;;0.60;99.90;;;;;;25471582;23;20013;-52
2023/11/28 00:49:57;;;;;;;150.50;4.70;;;0.50;99.90;;;;;;25479009;23;20303;-58
2023/11/28 00:59:58;;;;;;;7.28;0.95;;;0.60;99.90;;;;;;25452459;23;20064;-59
2023/11/28 01:10:00;;;;;;;258.63;7.63;;;0.50;99.90;;;;;;25478412;23;20005;-58
2023/11/28 01:20:03;;;;;;;205.65;6.45;;;0.30;99.90;;;;;;25477843;23;20009;-50
2023/11/28 01:30:05;;;;;;;171.02;8.15;;;0.20;99.90;;;;;;25477691;23;20006;-56
2023/11/28 01:40:08;;;;;;;92.68;3.75;;;0.30;99.90;;;;;;25474925;23;20037;-58
2023/11/28 01:50:11;;;;;;;155.50;5.13;;;0.20;99.90;;;;;;25474545;23;20006;-59
2023/11/28 02:00:13;;;;;;;181.57;6.38;;;0.10;99.90;;;;;;25474732;23;20033;-58
2023/11/28 02:10:18;;;;;;;106.95;4.30;;;0.10;99.90;;;;;;25474247;23;20009;-58
2023/11/28 02:20:19;;;;;;;5.15;2.58;;;0.10;99.90;;;;;;25473892;23;20002;-47
2023/11/28 02:30:21;;;;;;;218.70;8.52;;;-0.10;99.90;;;;;;25475256;23;20012;-58
2023/11/28 02:40:23;;;;;;;149.18;7.22;;;-0.10;99.90;;;;;;25474497;23;20013;-58
2023/11/28 02:50:26;;;;;;;10.25;3.38;;;-0.10;99.90;;;;;;25473971;23;20025;-58
2023/11/28 03:00:28;;;;;;;137.00;8.20;;;-0.30;99.90;;;;;;25473794;23;20063;-57
2023/11/28 03:10:30;;;;;;;438.05;17.67;;;-0.40;99.90;;;;;;25473692;23;20377;-57
2023/11/28 03:20:32;;;;;;;246.98;12.15;;;-0.50;99.90;;;;;;25472878;23;20002;-58
2023/11/28 03:30:33;;;;;;;376.92;17.02;;;-0.40;99.90;;;;;;25472976;23;20006;-58
2023/11/28 03:40:36;;;;;;;632.13;24.85;;;-0.30;99.90;;;;;;25470964;23;20014;-58
2023/11/28 03:50:38;;;;;;;205.40;12.15;;;-0.20;99.90;;;;;;25472076;23;20017;-58
2023/11/28 04:00:41;;;;;;;509.48;21.13;;;-0.30;99.90;;;;;;25471101;23;20338;-57
2023/11/28 04:10:43;;;;;;;242.98;12.90;;;-0.40;99.90;;;;;;25470895;23;20072;-51
2023/11/28 04:20:45;;;;;;;31.45;8.48;;;-0.60;99.90;;;;;;25511542;23;20006;-57
2023/11/28 04:30:47;;;;;;;126.68;10.68;;;-0.90;99.90;;;;;;25471205;23;20040;-57
2023/11/28 04:40:51;;;;;;;10.77;6.18;;;-0.90;99.90;;;;;;25470317;23;20314;-58
2023/11/28 04:50:54;;;;;;;61.03;6.88;;;-0.80;99.90;;;;;;25469169;23;20010;-58
2023/11/28 05:00:57;;;;;;;19.60;7.68;;;-0.70;99.90;;;;;;25470439;23;20009;-58
2023/11/28 05:11:04;;;;;;;58.75;5.85;;;-0.80;99.90;;;;;;25468847;23;20017;-58
2023/11/28 05:21:06;;;;;;;35.15;7.35;;;-1.20;99.90;;;;;;25509257;23;20005;-58
2023/11/28 05:31:08;;;;;;;14.02;6.15;;;-1.20;99.90;;;;;;25472984;23;20330;-56
2023/11/28 05:41:12;;;;;;;9.55;4.70;;;-1.10;99.90;;;;;;25477034;23;20013;-57
2023/11/28 05:51:14;;;;;;;6.35;3.40;;;-1.20;99.90;;;;;;25475316;23;20072;-56
2023/11/28 06:01:17;;;;;;;6.88;3.25;;;-1.50;99.90;;;;;;25476176;23;20507;-57
2023/11/28 06:11:18;;;;;;;4.40;2.42;;;-1.70;99.90;;;;;;25474582;23;20445;-57
2023/11/28 06:21:22;;;;;;;4.30;2.10;;;-2.00;99.90;;;;;;25475119;23;20037;-57
2023/11/28 06:31:25;;;;;;;4.45;2.60;;;-1.50;99.90;;;;;;25475112;23;20010;-57
2023/11/28 06:41:26;;;;;;;2.70;1.80;;;-1.30;99.90;;;;;;25472990;23;20013;-57
2023/11/28 06:51:28;;;;;;;5.10;2.45;;;-1.50;99.90;;;;;;25474228;23;20013;-57
2023/11/28 07:01:30;;;;;;;6.28;2.55;;;-1.90;99.90;;;;;;25473878;23;20012;-52
2023/11/28 07:11:33;;;;;;;4.97;2.67;;;-1.70;99.90;;;;;;25473382;23;20059;-57
2023/11/28 07:21:39;;;;;;;5.22;2.63;;;-1.90;99.90;;;;;;25514052;23;20002;-57
2023/11/28 07:31:41;;;;;;;4.43;2.20;;;-2.10;99.90;;;;;;25474207;23;20465;-57
2023/11/28 07:41:42;;;;;;;6.43;3.50;;;-1.70;99.90;;;;;;25470858;23;20016;-55
2023/11/28 07:51:44;;;;;;;5.45;3.00;;;-0.70;99.90;;;;;;25470365;23;20010;-46
2023/11/28 08:01:47;;;;;;;4.78;2.90;;;-0.10;99.90;;;;;;25470113;23;20005;-55
2023/11/28 08:11:49;;;;;;;6.43;2.72;;;0.40;99.90;;;;;;25470149;23;20013;-54
2023/11/28 08:21:51;;;;;;;6.72;3.38;;;1.10;99.90;;;;;;25471130;23;20006;-48
2023/11/28 08:31:53;;;;;;;3.50;2.42;;;1.60;99.90;;;;;;25470966;23;20012;-50
2023/11/28 08:41:55;;;;;;;3.88;2.75;;;2.00;99.90;;;;;;25470815;23;20014;-49
2023/11/28 08:51:57;;;;;;;3.47;2.53;;;2.50;99.90;;;;;;25472172;23;20002;-55
2023/11/28 09:01:59;;;;;;;3.33;2.30;;;2.80;99.90;;;;;;25472523;23;20021;-54
2023/11/28 09:12:01;;;;;;;3.60;2.38;;;2.90;99.90;;;;;;25477592;23;20068;-55
2023/11/28 09:22:03;;;;;;;3.40;2.40;;;3.40;99.90;;;;;;25477671;23;20010;-53
2023/11/28 09:32:05;;;;;;;4.47;1.73;;;4.10;99.90;;;;;;25477685;23;20010;-52
2023/11/28 09:42:12;;;;;;;2.10;1.63;;;4.40;99.90;;;;;;25477088;23;20264;-48
2023/11/28 09:52:15;;;;;;;3.42;1.83;;;4.80;99.90;;;;;;25517740;23;20009;-54
2023/11/28 10:02:17;;;;;;;3.00;1.70;;;5.20;99.90;;;;;;25476487;23;20002;-56
2023/11/28 10:12:20;;;;;;;2.67;1.40;;;5.90;99.90;;;;;;25475728;23;20006;-54
2023/11/28 10:22:22;;;;;;;2.08;1.40;;;6.20;99.90;;;;;;25475497;23;20006;-57
2023/11/28 10:32:30;;;;;;;3.17;1.27;;;6.30;99.90;;;;;;25474870;23;20009;-52
2023/11/28 10:42:32;;;;;;;3.92;1.30;;;6.50;99.90;;;;;;25472941;23;20018;-50
2023/11/28 10:52:37;;;;;;;2.47;1.40;;;7.20;99.90;;;;;;25474529;23;20013;-56
2023/11/28 11:02:39;;;;;;;1.92;1.35;;;7.40;99.90;;;;;;25473666;23;20013;-54
2023/11/28 11:12:44;;;;;;;2.33;1.27;;;7.50;99.90;;;;;;25473635;23;20326;-55
2023/11/28 11:22:51;;;;;;;2.85;1.40;;;8.20;99.90;;;;;;25472897;23;20010;-50
2023/11/28 11:32:55;;;;;;;2.08;1.10;;;8.40;99.90;;;;;;25513651;23;20006;-49
2023/11/28 11:43:05;;;;;;;3.17;1.10;;;8.10;99.90;;;;;;25472616;23;20013;-58
2023/11/28 11:53:08;;;;;;;;;;;8.60;99.50;;;;;;25513614;23;20009;-55
2023/11/28 12:03:10;;;;;;;1.35;0.60;;;8.70;99.90;;;;;;25471934;23;19909;-51
2023/11/28 12:13:15;;;;;;;0.75;0.47;;;8.40;97.10;;;;;;25471867;23;20008;-56
2023/11/28 12:23:20;;;;;;;1.30;0.60;;;8.10;96.10;;;;;;25511942;23;20315;-57
2023/11/28 12:33:23;;;;;;;1.23;0.70;;;7.80;95.40;;;;;;25468635;23;20086;-50
2023/11/28 12:43:26;;;;;;;1.17;0.45;;;7.80;96.80;;;;;;25483483;23;20020;-52
2023/11/28 12:53:33;;;;;;;0.60;0.10;;;8.30;94.50;;;;;;25484497;23;20002;-48
2023/11/28 13:03:36;;;;;;;1.13;0.30;;;8.50;90.80;;;;;;25524695;23;20009;-50
2023/11/28 13:13:38;;;;;;;0.10;0.00;;;8.20;92.40;;;;;;25483867;23;20001;-49
2023/11/28 13:23:40;;;;;;;0.20;0.10;;;7.60;81.50;;;;;;25483820;23;20068;-48
2023/11/28 13:33:45;;;;;;;0.10;0.05;;;7.10;80.70;;;;;;25483763;23;20005;-50
2023/11/28 13:43:48;;;;;;;0.20;0.10;;;6.80;80.90;;;;;;25482051;23;20121;-53
2023/11/28 13:53:50;;;;;;;0.10;0.10;;;6.80;82.70;;;;;;25477733;23;20002;-58
2023/11/28 14:03:56;;;;;;;0.40;0.10;;;6.70;81.90;;;;;;25476323;23;20002;-52
2023/11/28 14:13:58;;;;;;;1.17;0.10;;;6.50;81.50;;;;;;25516868;23;20389;-58
2023/11/28 14:24:00;;;;;;;0.13;0.10;;;6.50;80.80;;;;;;25474015;23;20013;-52
2023/11/28 14:34:01;;;;;;;0.17;0.03;;;6.40;81.10;;;;;;25475350;23;20009;-49
2023/11/28 14:44:04;;;;;;;0.55;0.10;;;5.90;83.40;;;;;;25474581;23;20010;-50
2023/11/28 14:54:09;;;;;;;1.85;0.20;;;5.40;84.40;;;;;;25474431;23;20010;-58
2023/11/28 15:04:14;;;;;;;0.22;0.00;;;4.70;90.50;;;;;;25473290;23;20006;-51
2023/11/28 15:14:16;;;;;;;0.43;0.10;;;3.70;93.60;;;;;;25473492;23;20048;-50
2023/11/28 15:24:18;;;;;;;0.30;0.10;;;2.90;96.10;;;;;;25473260;23;20013;-56
2023/11/28 15:34:20;;;;;;;0.10;0.00;;;2.40;96.70;;;;;;25472886;23;20001;-51
2023/11/28 15:44:21;;;;;;;0.30;0.10;;;2.20;97.60;;;;;;25472559;23;20445;-58
2023/11/28 15:54:24;;;;;;;0.17;0.00;;;2.20;95.60;;;;;;25472349;23;20009;-58
2023/11/28 16:04:26;;;;;;;1.40;0.20;;;2.20;96.30;;;;;;25471742;23;20064;-58
2023/11/28 16:14:28;;;;;;;0.40;0.10;;;2.10;95.90;;;;;;25469771;23;20086;-58
2023/11/28 16:24:30;;;;;;;0.30;0.10;;;2.10;94.70;;;;;;25471128;23;20010;-58
2023/11/28 16:34:33;;;;;;;0.20;0.10;;;2.00;94.90;;;;;;25470430;23;20001;-57
2023/11/28 16:44:35;;;;;;;0.30;0.10;;;1.90;94.90;;;;;;25470440;23;20446;-48
2023/11/28 16:54:37;;;;;;;0.90;0.20;;;1.80;95.70;;;;;;25470812;23;20274;-57
2023/11/28 17:04:40;;;;;;;1.92;0.20;;;1.80;95.00;;;;;;25469793;23;20060;-50
2023/11/28 17:14:44;;;;;;;0.50;0.20;;;2.00;94.50;;;;;;25470392;23;20012;-58
2023/11/28 17:24:46;;;;;;;0.32;0.22;;;2.00;95.00;;;;;;25473446;23;20114;-51
2023/11/28 17:34:49;;;;;;;0.40;0.20;;;1.90;94.40;;;;;;25477648;23;20009;-45
2023/11/28 17:44:55;;;;;;;0.90;0.10;;;2.10;94.00;;;;;;25476853;23;20014;-48
2023/11/28 17:54:58;;;;;;;0.30;0.10;;;2.00;92.20;;;;;;25517509;23;20001;-57
2023/11/28 18:05:00;;;;;;;0.20;0.10;;;2.00;87.90;;;;;;25476211;23;20005;-55
2023/11/28 18:15:03;;;;;;;0.60;0.10;;;1.90;88.80;;;;;;25476017;23;20338;-57
2023/11/28 18:25:05;;;;;;;0.20;0.05;;;1.70;90.60;;;;;;25475694;23;20079;-57
2023/11/28 18:35:10;;;;;;;0.47;0.20;;;1.00;91.70;;;;;;25474693;23;20009;-58
2023/11/28 18:45:12;;;;;;;0.20;0.10;;;0.80;91.60;;;;;;25474385;23;20016;-52
2023/11/28 18:55:13;;;;;;;0.50;0.20;;;0.70;92.10;;;;;;25474509;23;20056;-52
2023/11/28 19:05:16;;;;;;;0.22;0.10;;;0.60;92.40;;;;;;25472597;23;20010;-58
2023/11/28 19:15:18;;;;;;;0.30;0.10;;;0.60;91.40;;;;;;25472954;23;20496;-56
2023/11/28 19:25:19;;;;;;;1.10;0.10;;;1.00;91.40;;;;;;25472947;23;20009;-58
2023/11/28 19:35:21;;;;;;;0.40;0.10;;;0.90;90.50;;;;;;25472861;23;20002;-58
2023/11/28 19:45:24;;;;;;;0.43;0.10;;;0.80;91.20;;;;;;25472824;23;20010;-58
2023/11/28 19:55:26;;;;;;;0.68;0.20;;;0.70;90.70;;;;;;25461003;23;20017;-58
2023/11/28 20:05:31;;;;;;;0.55;0.20;;;0.40;90.60;;;;;;25457339;23;20014;-58
2023/11/28 20:15:34;;;;;;;1.65;0.20;;;0.70;90.80;;;;;;25460043;23;20010;-58
2023/11/28 20:25:36;;;;;;;0.38;0.20;;;0.80;89.60;;;;;;25461694;23;20051;-58
2023/11/28 20:35:39;;;;;;;2.83;0.20;;;0.60;90.60;;;;;;25470807;23;20002;-58
2023/11/28 20:45:41;;;;;;;0.40;0.20;;;0.40;90.40;;;;;;25470502;23;20147;-58
2023/11/28 20:55:43;;;;;;;1.58;0.20;;;0.50;90.70;;;;;;25470789;23;20002;-58
2023/11/28 21:05:49;;;;;;;0.93;0.20;;;0.30;91.30;;;;;;25478618;23;20009;-54
2023/11/28 21:15:50;;;;;;;0.30;0.20;;;0.40;90.90;;;;;;25519313;23;20006;-58
2023/11/28 21:25:52;;;;;;;0.65;0.10;;;0.50;90.20;;;;;;25476515;23;20009;-56
2023/11/28 21:35:54;;;;;;;0.50;0.30;;;0.40;90.10;;;;;;25477555;23;20005;-57
2023/11/28 21:45:56;;;;;;;0.15;0.00;;;0.50;90.10;;;;;;25477060;23;20017;-57
2023/11/28 21:55:58;;;;;;;0.40;0.10;;;0.40;90.00;;;;;;25476918;23;20052;-57
2023/11/28 22:06:00;;;;;;;0.50;0.10;;;0.50;89.60;;;;;;25473714;23;20074;-56
2023/11/28 22:16:03;;;;;;;0.15;0.00;;;0.50;89.40;;;;;;25475031;23;20086;-57
2023/11/28 22:26:08;;;;;;;0.20;0.10;;;0.40;89.90;;;;;;25475491;23;20005;-46
2023/11/28 22:36:10;;;;;;;0.43;0.20;;;0.30;90.10;;;;;;25474922;23;20002;-57
2023/11/28 22:46:12;;;;;;;0.40;0.10;;;0.20;90.60;;;;;;25474311;23;20025;-57
2023/11/28 22:56:14;;;;;;;0.35;0.10;;;-0.10;90.60;;;;;;25474762;23;20335;-57
2023/11/28 23:06:19;;;;;;;1.40;0.10;;;-0.20;90.30;;;;;;25473876;23;20559;-57
2023/11/28 23:16:21;;;;;;;0.10;0.00;;;-0.20;90.10;;;;;;25473388;23;20002;-54
2023/11/28 23:26:23;;;;;;;0.40;0.10;;;-0.20;89.80;;;;;;25472516;23;20006;-57
2023/11/28 23:36:29;;;;;;;0.30;0.10;;;-0.30;90.20;;;;;;25472222;23;20005;-57
2023/11/28 23:46:31;;;;;;;0.20;0.08;;;-0.60;90.80;;;;;;25478211;23;20013;-52
2023/11/28 23:56:33;;;;;;;0.25;0.10;;;-1.00;91.30;;;;;;25472372;23;20430;-47
